sensor_id;sensor_type;location;lat;lon;timestamp;pressure;altitude;pressure_sealevel;temperature;humidity
54236;BME280;40151;43.606;1.472;2023-02-03T00:00:32;101072.19;;;17.50;50.54
54236;BME280;40151;43.606;1.472;2023-02-03T00:02:57;101070.44;;;17.49;50.93
54236;BME280;40151;43.606;1.472;2023-02-03T00:05:23;101069.53;;;17.50;50.78
54236;BME280;40151;43.606;1.472;2023-02-03T00:07:49;101066.91;;;17.50;50.97
54236;BME280;40151;43.606;1.472;2023-02-03T00:10:15;101072.22;;;17.48;50.79
54236;BME280;40151;43.606;1.472;2023-02-03T00:12:48;101071.34;;;17.49;50.91
54236;BME280;40151;43.606;1.472;2023-02-03T00:15:15;101068.72;;;17.48;50.80
54236;BME280;40151;43.606;1.472;2023-02-03T00:17:41;101074.00;;;17.48;50.87
54236;BME280;40151;43.606;1.472;2023-02-03T00:20:08;101069.56;;;17.48;50.79
54236;BME280;40151;43.606;1.472;2023-02-03T00:22:34;101068.72;;;17.48;50.72
54236;BME280;40151;43.606;1.472;2023-02-03T00:25:00;101073.09;;;17.49;50.93
54236;BME280;40151;43.606;1.472;2023-02-03T00:27:25;101071.41;;;17.44;50.92
54236;BME280;40151;43.606;1.472;2023-02-03T00:29:50;101068.69;;;17.49;50.65
54236;BME280;40151;43.606;1.472;2023-02-03T00:32:18;101061.63;;;17.50;50.62
54236;BME280;40151;43.606;1.472;2023-02-03T00:34:43;101058.19;;;17.46;50.64
54236;BME280;40151;43.606;1.472;2023-02-03T00:37:11;101057.25;;;17.49;50.73
54236;BME280;40151;43.606;1.472;2023-02-03T00:39:37;101059.94;;;17.45;50.58
54236;BME280;40151;43.606;1.472;2023-02-03T00:42:04;101075.72;;;17.49;50.53
54236;BME280;40151;43.606;1.472;2023-02-03T00:44:30;101070.50;;;17.45;50.93
54236;BME280;40151;43.606;1.472;2023-02-03T00:46:55;101087.19;;;17.48;50.59
54236;BME280;40151;43.606;1.472;2023-02-03T00:49:21;101075.78;;;17.45;50.60
54236;BME280;40151;43.606;1.472;2023-02-03T00:51:46;101073.13;;;17.45;50.79
54236;BME280;40151;43.606;1.472;2023-02-03T00:54:11;101075.84;;;17.44;50.59
54236;BME280;40151;43.606;1.472;2023-02-03T00:56:38;101084.59;;;17.44;50.79
54236;BME280;40151;43.606;1.472;2023-02-03T00:59:04;101085.47;;;17.45;50.85
54236;BME280;40151;43.606;1.472;2023-02-03T01:01:29;101076.72;;;17.43;50.71
54236;BME280;40151;43.606;1.472;2023-02-03T01:03:55;101072.25;;;17.47;50.76
54236;BME280;40151;43.606;1.472;2023-02-03T01:06:21;101079.34;;;17.43;50.85
54236;BME280;40151;43.606;1.472;2023-02-03T01:08:47;101078.47;;;17.44;50.65
54236;BME280;40151;43.606;1.472;2023-02-03T01:11:17;101082.88;;;17.43;50.63
54236;BME280;40151;43.606;1.472;2023-02-03T01:13:44;101087.31;;;17.41;50.79
54236;BME280;40151;43.606;1.472;2023-02-03T01:16:11;101088.22;;;17.40;50.71
54236;BME280;40151;43.606;1.472;2023-02-03T01:18:37;101089.97;;;17.41;50.71
54236;BME280;40151;43.606;1.472;2023-02-03T01:21:07;101088.28;;;17.37;50.74
54236;BME280;40151;43.606;1.472;2023-02-03T01:23:35;101093.53;;;17.39;50.62
54236;BME280;40151;43.606;1.472;2023-02-03T01:26:06;101105.84;;;17.38;51.07
54236;BME280;40151;43.606;1.472;2023-02-03T01:28:31;101105.78;;;17.41;50.82
54236;BME280;40151;43.606;1.472;2023-02-03T01:31:10;101116.34;;;17.41;50.75
54236;BME280;40151;43.606;1.472;2023-02-03T01:33:37;101114.63;;;17.40;50.68
54236;BME280;40151;43.606;1.472;2023-02-03T01:36:07;101108.38;;;17.43;50.74
54236;BME280;40151;43.606;1.472;2023-02-03T01:38:33;101109.34;;;17.40;50.66
54236;BME280;40151;43.606;1.472;2023-02-03T01:40:58;101103.22;;;17.37;50.81
54236;BME280;40151;43.606;1.472;2023-02-03T01:43:32;101112.84;;;17.39;50.84
54236;BME280;40151;43.606;1.472;2023-02-03T01:45:59;101103.16;;;17.40;50.83
54236;BME280;40151;43.606;1.472;2023-02-03T01:48:26;101102.34;;;17.38;50.57
54236;BME280;40151;43.606;1.472;2023-02-03T01:50:53;101104.09;;;17.37;50.61
54236;BME280;40151;43.606;1.472;2023-02-03T01:53:19;101104.97;;;17.38;50.49
54236;BME280;40151;43.606;1.472;2023-02-03T01:55:46;101100.63;;;17.35;50.80
54236;BME280;40151;43.606;1.472;2023-02-03T01:58:17;101098.88;;;17.34;50.68
54236;BME280;40151;43.606;1.472;2023-02-03T02:00:46;101101.50;;;17.34;50.68
54236;BME280;40151;43.606;1.472;2023-02-03T02:03:12;101094.50;;;17.33;50.94
54236;BME280;40151;43.606;1.472;2023-02-03T02:05:59;101094.44;;;17.38;50.72
54236;BME280;40151;43.606;1.472;2023-02-03T02:08:27;101088.31;;;17.34;50.79
54236;BME280;40151;43.606;1.472;2023-02-03T02:10:54;101087.44;;;17.35;50.87
54236;BME280;40151;43.606;1.472;2023-02-03T02:13:21;101087.50;;;17.30;50.71
54236;BME280;40151;43.606;1.472;2023-02-03T02:30:47;101090.19;;;17.29;50.75
54236;BME280;40151;43.606;1.472;2023-02-03T02:32:56;101087.50;;;17.30;50.65
54236;BME280;40151;43.606;1.472;2023-02-03T02:35:46;101091.94;;;17.30;50.86
54236;BME280;40151;43.606;1.472;2023-02-03T02:41:01;101079.66;;;17.29;50.56
54236;BME280;40151;43.606;1.472;2023-02-03T02:43:41;101084.06;;;17.27;50.75
54236;BME280;40151;43.606;1.472;2023-02-03T02:51:10;101066.53;;;17.24;50.53
54236;BME280;40151;43.606;1.472;2023-02-03T02:53:59;101071.00;;;17.21;50.78
54236;BME280;40151;43.606;1.472;2023-02-03T02:56:28;101070.94;;;17.24;50.56
54236;BME280;40151;43.606;1.472;2023-02-03T02:58:57;101062.19;;;17.22;50.45
54236;BME280;40151;43.606;1.472;2023-02-03T03:01:24;101064.81;;;17.22;50.56
54236;BME280;40151;43.606;1.472;2023-02-03T03:03:49;101056.91;;;17.22;50.48
54236;BME280;40151;43.606;1.472;2023-02-03T03:06:25;101057.78;;;17.22;50.49
54236;BME280;40151;43.606;1.472;2023-02-03T03:09:10;101057.81;;;17.21;50.57
54236;BME280;40151;43.606;1.472;2023-02-03T03:11:42;101050.78;;;17.21;50.43
54236;BME280;40151;43.606;1.472;2023-02-03T03:14:09;101049.88;;;17.21;50.53
54236;BME280;40151;43.606;1.472;2023-02-03T03:16:37;101051.63;;;17.22;50.82
54236;BME280;40151;43.606;1.472;2023-02-03T03:19:12;101046.34;;;17.22;50.55
54236;BME280;40151;43.606;1.472;2023-02-03T03:21:55;101052.56;;;17.19;50.61
54236;BME280;40151;43.606;1.472;2023-02-03T03:24:28;101056.09;;;17.18;50.66
54236;BME280;40151;43.606;1.472;2023-02-03T03:27:04;101053.47;;;17.16;50.58
54236;BME280;40151;43.606;1.472;2023-02-03T03:29:42;101051.75;;;17.15;50.68
54236;BME280;40151;43.606;1.472;2023-02-03T03:32:11;101052.59;;;17.17;50.67
54236;BME280;40151;43.606;1.472;2023-02-03T03:34:38;101052.63;;;17.16;50.57
54236;BME280;40151;43.606;1.472;2023-02-03T03:39:55;101046.47;;;17.15;50.56
54236;BME280;40151;43.606;1.472;2023-02-03T03:42:26;101049.97;;;17.17;50.53
54236;BME280;40151;43.606;1.472;2023-02-03T03:44:58;101055.28;;;17.14;50.55
54236;BME280;40151;43.606;1.472;2023-02-03T03:47:41;101053.47;;;17.16;50.67
54236;BME280;40151;43.606;1.472;2023-02-03T03:50:11;101064.03;;;17.16;50.37
54236;BME280;40151;43.606;1.472;2023-02-03T03:52:40;101060.56;;;17.14;50.51
54236;BME280;40151;43.606;1.472;2023-02-03T03:55:09;101060.59;;;17.13;50.66
54236;BME280;40151;43.606;1.472;2023-02-03T04:00:16;101064.16;;;17.10;50.67
54236;BME280;40151;43.606;1.472;2023-02-03T04:02:45;101053.56;;;17.13;50.47
54236;BME280;40151;43.606;1.472;2023-02-03T04:05:15;101070.31;;;17.11;50.46
54236;BME280;40151;43.606;1.472;2023-02-03T04:07:45;101071.19;;;17.11;50.22
54236;BME280;40151;43.606;1.472;2023-02-03T04:10:26;101075.59;;;17.09;50.29
54236;BME280;40151;43.606;1.472;2023-02-03T04:12:54;101074.69;;;17.10;50.26
54236;BME280;40151;43.606;1.472;2023-02-03T04:15:20;101073.03;;;17.06;50.44
54236;BME280;40151;43.606;1.472;2023-02-03T04:17:46;101079.25;;;17.03;50.65
54236;BME280;40151;43.606;1.472;2023-02-03T04:20:11;101081.78;;;17.08;50.41
54236;BME280;40151;43.606;1.472;2023-02-03T04:22:37;101084.44;;;17.07;50.61
54236;BME280;40151;43.606;1.472;2023-02-03T04:25:03;101073.03;;;17.06;50.32
54236;BME280;40151;43.606;1.472;2023-02-03T04:27:29;101070.41;;;17.06;50.65
54236;BME280;40151;43.606;1.472;2023-02-03T04:29:55;101065.16;;;17.04;50.40
54236;BME280;40151;43.606;1.472;2023-02-03T04:32:22;101070.44;;;17.04;50.66
54236;BME280;40151;43.606;1.472;2023-02-03T04:34:47;101080.06;;;17.06;50.42
54236;BME280;40151;43.606;1.472;2023-02-03T04:37:13;101075.72;;;17.03;50.59
54236;BME280;40151;43.606;1.472;2023-02-03T04:39:38;101080.97;;;17.04;50.37
54236;BME280;40151;43.606;1.472;2023-02-03T04:42:04;101089.78;;;17.02;50.34
54236;BME280;40151;43.606;1.472;2023-02-03T04:44:29;101094.22;;;17.00;50.40
54236;BME280;40151;43.606;1.472;2023-02-03T04:46:54;101090.69;;;17.01;50.21
54236;BME280;40151;43.606;1.472;2023-02-03T04:49:20;101087.19;;;16.99;50.44
54236;BME280;40151;43.606;1.472;2023-02-03T04:51:48;101088.97;;;16.98;50.36
54236;BME280;40151;43.606;1.472;2023-02-03T04:54:13;101087.25;;;16.96;50.30
54236;BME280;40151;43.606;1.472;2023-02-03T04:56:39;101080.16;;;16.98;50.45
54236;BME280;40151;43.606;1.472;2023-02-03T04:59:04;101067.00;;;16.98;50.34
54236;BME280;40151;43.606;1.472;2023-02-03T05:01:31;101062.63;;;16.97;50.36
54236;BME280;40151;43.606;1.472;2023-02-03T05:03:56;101076.63;;;16.99;50.35
54236;BME280;40151;43.606;1.472;2023-02-03T05:06:26;101073.16;;;16.97;50.67
54236;BME280;40151;43.606;1.472;2023-02-03T05:08:53;101071.41;;;16.97;50.45
54236;BME280;40151;43.606;1.472;2023-02-03T05:11:19;101060.88;;;16.96;50.58
54236;BME280;40151;43.606;1.472;2023-02-03T05:13:44;101063.50;;;16.97;50.57
54236;BME280;40151;43.606;1.472;2023-02-03T05:16:10;101061.78;;;16.95;50.41
54236;BME280;40151;43.606;1.472;2023-02-03T05:18:35;101055.63;;;16.96;50.51
54236;BME280;40151;43.606;1.472;2023-02-03T05:21:00;101069.69;;;16.95;50.63
54236;BME280;40151;43.606;1.472;2023-02-03T05:23:26;101068.78;;;16.96;50.46
54236;BME280;40151;43.606;1.472;2023-02-03T05:25:51;101058.34;;;16.91;50.47
54236;BME280;40151;43.606;1.472;2023-02-03T05:28:17;101060.94;;;16.92;50.73
54236;BME280;40151;43.606;1.472;2023-02-03T05:30:42;101062.63;;;16.97;50.22
54236;BME280;40151;43.606;1.472;2023-02-03T05:33:08;101064.47;;;16.91;50.56
54236;BME280;40151;43.606;1.472;2023-02-03T05:35:34;101060.94;;;16.92;50.37
54236;BME280;40151;43.606;1.472;2023-02-03T05:38:00;101064.47;;;16.91;50.42
54236;BME280;40151;43.606;1.472;2023-02-03T05:40:25;101065.31;;;16.94;50.39
54236;BME280;40151;43.606;1.472;2023-02-03T05:43:09;101061.81;;;16.93;50.54
54236;BME280;40151;43.606;1.472;2023-02-03T05:45:35;101071.47;;;16.92;50.32
54236;BME280;40151;43.606;1.472;2023-02-03T05:48:01;101076.72;;;16.94;50.20
54236;BME280;40151;43.606;1.472;2023-02-03T05:50:30;101068.00;;;16.90;50.23
54236;BME280;40151;43.606;1.472;2023-02-03T05:52:59;101063.63;;;16.91;50.31
54236;BME280;40151;43.606;1.472;2023-02-03T05:55:26;101073.34;;;16.87;50.53
54236;BME280;40151;43.606;1.472;2023-02-03T05:57:52;101073.34;;;16.87;50.53
54236;BME280;40151;43.606;1.472;2023-02-03T06:00:18;101073.34;;;16.87;50.20
54236;BME280;40151;43.606;1.472;2023-02-03T06:02:43;101072.47;;;16.87;50.23
54236;BME280;40151;43.606;1.472;2023-02-03T06:05:09;101076.94;;;16.83;50.45
54236;BME280;40151;43.606;1.472;2023-02-03T06:07:34;101085.66;;;16.85;50.15
54236;BME280;40151;43.606;1.472;2023-02-03T06:10:00;101079.53;;;16.85;50.34
54236;BME280;40151;43.606;1.472;2023-02-03T06:12:25;101086.47;;;16.89;49.96
54236;BME280;40151;43.606;1.472;2023-02-03T06:14:51;101092.69;;;16.86;50.24
54236;BME280;40151;43.606;1.472;2023-02-03T06:17:16;101088.31;;;16.84;50.52
54236;BME280;40151;43.606;1.472;2023-02-03T06:19:41;101096.31;;;16.81;50.33
54236;BME280;40151;43.606;1.472;2023-02-03T06:22:07;101101.56;;;16.82;50.30
54236;BME280;40151;43.606;1.472;2023-02-03T06:24:32;101113.84;;;16.83;50.35
54236;BME280;40151;43.606;1.472;2023-02-03T06:26:58;101098.03;;;16.83;50.40
54236;BME280;40151;43.606;1.472;2023-02-03T06:29:23;101096.28;;;16.82;50.25
54236;BME280;40151;43.606;1.472;2023-02-03T06:31:49;101099.81;;;16.81;50.29
54236;BME280;40151;43.606;1.472;2023-02-03T06:34:14;101106.84;;;16.82;50.10
54236;BME280;40151;43.606;1.472;2023-02-03T06:36:39;101099.81;;;16.81;50.15
54236;BME280;40151;43.606;1.472;2023-02-03T06:39:05;101092.78;;;16.80;50.15
54236;BME280;40151;43.606;1.472;2023-02-03T06:41:30;101091.03;;;16.82;50.13
54236;BME280;40151;43.606;1.472;2023-02-03T06:43:56;101087.47;;;16.83;50.40
54236;BME280;40151;43.606;1.472;2023-02-03T06:46:22;101088.38;;;16.82;50.53
54236;BME280;40151;43.606;1.472;2023-02-03T06:48:52;101093.59;;;16.84;50.39
54236;BME280;40151;43.606;1.472;2023-02-03T06:51:17;101093.59;;;16.84;50.34
54236;BME280;40151;43.606;1.472;2023-02-03T06:53:43;101089.28;;;16.81;50.22
54236;BME280;40151;43.606;1.472;2023-02-03T06:56:08;101090.13;;;16.82;50.39
54236;BME280;40151;43.606;1.472;2023-02-03T06:58:33;101081.31;;;16.83;50.37
54236;BME280;40151;43.606;1.472;2023-02-03T07:00:59;101080.50;;;16.79;50.52
54236;BME280;40151;43.606;1.472;2023-02-03T07:03:24;101084.00;;;16.81;50.27
54236;BME280;40151;43.606;1.472;2023-02-03T07:05:49;101084.03;;;16.78;50.31
54236;BME280;40151;43.606;1.472;2023-02-03T07:08:15;101092.78;;;16.80;50.01
54236;BME280;40151;43.606;1.472;2023-02-03T07:10:40;101103.31;;;16.82;50.42
54236;BME280;40151;43.606;1.472;2023-02-03T07:13:06;101106.84;;;16.82;50.46
54236;BME280;40151;43.606;1.472;2023-02-03T07:15:32;101112.09;;;16.82;50.38
54236;BME280;40151;43.606;1.472;2023-02-03T07:17:57;101106.88;;;16.79;50.09
54236;BME280;40151;43.606;1.472;2023-02-03T07:20:23;101101.59;;;16.79;50.21
54236;BME280;40151;43.606;1.472;2023-02-03T07:22:56;101106.88;;;16.79;50.14
54236;BME280;40151;43.606;1.472;2023-02-03T07:25:22;101105.13;;;16.80;50.18
54236;BME280;40151;43.606;1.472;2023-02-03T07:27:48;101111.25;;;16.80;50.42
54236;BME280;40151;43.606;1.472;2023-02-03T07:30:14;101117.41;;;16.79;50.33
54236;BME280;40151;43.606;1.472;2023-02-03T07:32:40;101124.47;;;16.78;50.05
54236;BME280;40151;43.606;1.472;2023-02-03T07:35:05;101121.84;;;16.78;50.26
54236;BME280;40151;43.606;1.472;2023-02-03T07:37:31;101121.00;;;16.75;50.14
54236;BME280;40151;43.606;1.472;2023-02-03T07:39:56;101124.50;;;16.77;50.11
54236;BME280;40151;43.606;1.472;2023-02-03T07:42:22;101125.34;;;16.77;50.03
54236;BME280;40151;43.606;1.472;2023-02-03T07:44:47;101110.41;;;16.78;50.31
54236;BME280;40151;43.606;1.472;2023-02-03T07:47:12;101121.00;;;16.75;50.25
54236;BME280;40151;43.606;1.472;2023-02-03T07:49:38;101116.59;;;16.75;50.40
54236;BME280;40151;43.606;1.472;2023-02-03T07:52:03;101121.88;;;16.75;50.01
54236;BME280;40151;43.606;1.472;2023-02-03T07:54:29;101124.53;;;16.74;50.12
54236;BME280;40151;43.606;1.472;2023-02-03T07:56:54;101133.31;;;16.76;50.39
54236;BME280;40151;43.606;1.472;2023-02-03T07:59:20;101135.97;;;16.74;50.08
54236;BME280;40151;43.606;1.472;2023-02-03T08:01:45;101128.97;;;16.72;50.26
54236;BME280;40151;43.606;1.472;2023-02-03T08:04:11;101120.19;;;16.71;50.15
54236;BME280;40151;43.606;1.472;2023-02-03T08:06:41;101122.78;;;16.73;49.93
54236;BME280;40151;43.606;1.472;2023-02-03T08:09:07;101128.06;;;16.73;50.19
54236;BME280;40151;43.606;1.472;2023-02-03T08:11:32;101136.88;;;16.72;49.99
54236;BME280;40151;43.606;1.472;2023-02-03T08:13:57;101121.94;;;16.72;50.25
54236;BME280;40151;43.606;1.472;2023-02-03T08:16:23;101118.44;;;16.70;50.27
54236;BME280;40151;43.606;1.472;2023-02-03T08:18:48;101124.59;;;16.71;50.20
54236;BME280;40151;43.606;1.472;2023-02-03T08:21:14;101126.34;;;16.72;50.26
54236;BME280;40151;43.606;1.472;2023-02-03T08:23:42;101124.63;;;16.68;50.01
54236;BME280;40151;43.606;1.472;2023-02-03T08:26:07;101136.91;;;16.69;50.16
54236;BME280;40151;43.606;1.472;2023-02-03T08:28:33;101138.69;;;16.68;50.08
54236;BME280;40151;43.606;1.472;2023-02-03T08:30:58;101144.88;;;16.67;50.14
54236;BME280;40151;43.606;1.472;2023-02-03T08:33:24;101141.34;;;16.68;50.04
54236;BME280;40151;43.606;1.472;2023-02-03T08:35:49;101141.34;;;16.68;49.99
54236;BME280;40151;43.606;1.472;2023-02-03T08:38:16;101143.97;;;16.67;50.31
54236;BME280;40151;43.606;1.472;2023-02-03T08:40:42;101148.34;;;16.68;50.28
54236;BME280;40151;43.606;1.472;2023-02-03T08:43:07;101137.81;;;16.68;49.93
54236;BME280;40151;43.606;1.472;2023-02-03T08:45:33;101131.69;;;16.66;50.07
54236;BME280;40151;43.606;1.472;2023-02-03T08:47:58;101127.34;;;16.64;50.03
54236;BME280;40151;43.606;1.472;2023-02-03T08:50:24;101120.28;;;16.65;50.08
54236;BME280;40151;43.606;1.472;2023-02-03T08:52:49;101129.97;;;16.64;49.98
54236;BME280;40151;43.606;1.472;2023-02-03T08:55:15;101133.50;;;16.63;50.10
54236;BME280;40151;43.606;1.472;2023-02-03T08:57:40;101124.72;;;16.63;49.97
54236;BME280;40151;43.606;1.472;2023-02-03T09:00:07;101137.00;;;16.62;49.82
54236;BME280;40151;43.606;1.472;2023-02-03T09:02:33;101144.06;;;16.62;49.99
54236;BME280;40151;43.606;1.472;2023-02-03T09:04:59;101144.06;;;16.62;50.07
54236;BME280;40151;43.606;1.472;2023-02-03T09:07:24;101139.72;;;16.59;49.88
54236;BME280;40151;43.606;1.472;2023-02-03T09:09:50;101146.72;;;16.59;50.14
54236;BME280;40151;43.606;1.472;2023-02-03T09:12:16;101154.63;;;16.59;50.28
54236;BME280;40151;43.606;1.472;2023-02-03T09:14:41;101153.81;;;16.57;50.01
54236;BME280;40151;43.606;1.472;2023-02-03T09:17:08;101152.88;;;16.59;50.04
54236;BME280;40151;43.606;1.472;2023-02-03T09:19:34;101152.00;;;16.59;49.87
54236;BME280;40151;43.606;1.472;2023-02-03T09:21:59;101156.44;;;16.58;49.86
54236;BME280;40151;43.606;1.472;2023-02-03T09:24:25;101154.66;;;16.57;49.73
54236;BME280;40151;43.606;1.472;2023-02-03T09:26:50;101158.19;;;16.56;49.86
54236;BME280;40151;43.606;1.472;2023-02-03T09:29:16;101157.28;;;16.57;49.71
54236;BME280;40151;43.606;1.472;2023-02-03T09:31:41;101153.81;;;16.55;49.81
54236;BME280;40151;43.606;1.472;2023-02-03T09:34:08;101144.16;;;16.56;49.80
54236;BME280;40151;43.606;1.472;2023-02-03T09:36:34;101151.16;;;16.58;49.98
54236;BME280;40151;43.606;1.472;2023-02-03T09:38:59;101156.47;;;16.55;49.87
54236;BME280;40151;43.606;1.472;2023-02-03T09:43:52;101157.34;;;16.54;50.02
54236;BME280;40151;43.606;1.472;2023-02-03T09:46:32;101167.84;;;16.57;49.97
54236;BME280;40151;43.606;1.472;2023-02-03T09:49:05;101162.63;;;16.56;49.94
54236;BME280;40151;43.606;1.472;2023-02-03T09:51:41;101162.63;;;16.56;49.57
54236;BME280;40151;43.606;1.472;2023-02-03T09:57:21;101178.44;;;16.53;49.71
54236;BME280;40151;43.606;1.472;2023-02-03T09:59:48;101187.25;;;16.53;49.60
54236;BME280;40151;43.606;1.472;2023-02-03T10:05:21;101179.34;;;16.53;49.89
54236;BME280;40151;43.606;1.472;2023-02-03T10:18:43;101195.16;;;16.53;49.91
54236;BME280;40151;43.606;1.472;2023-02-03T10:21:18;101191.66;;;16.51;49.83
54236;BME280;40151;43.606;1.472;2023-02-03T10:23:47;101203.09;;;16.50;49.94
54236;BME280;40151;43.606;1.472;2023-02-03T10:26:17;101205.72;;;16.48;49.96
54236;BME280;40151;43.606;1.472;2023-02-03T10:28:55;101210.97;;;16.51;49.92
54236;BME280;40151;43.606;1.472;2023-02-03T10:31:24;101216.25;;;16.50;50.14
54236;BME280;40151;43.606;1.472;2023-02-03T10:37:16;101218.06;;;16.48;49.90
54236;BME280;40151;43.606;1.472;2023-02-03T10:41:44;101205.78;;;16.47;49.87
54236;BME280;40151;43.606;1.472;2023-02-03T10:44:11;101203.97;;;16.49;49.92
54236;BME280;40151;43.606;1.472;2023-02-03T10:46:38;101202.22;;;16.49;49.84
54236;BME280;40151;43.606;1.472;2023-02-03T10:49:08;101178.56;;;16.45;49.87
54236;BME280;40151;43.606;1.472;2023-02-03T10:51:37;101190.81;;;16.49;49.78
54236;BME280;40151;43.606;1.472;2023-02-03T10:54:04;101186.44;;;16.48;49.84
54236;BME280;40151;43.606;1.472;2023-02-03T10:56:50;101187.28;;;16.48;49.92
54236;BME280;40151;43.606;1.472;2023-02-03T10:59:27;101183.78;;;16.49;50.11
54236;BME280;40151;43.606;1.472;2023-02-03T11:01:53;101184.69;;;16.47;49.98
54236;BME280;40151;43.606;1.472;2023-02-03T11:04:27;101181.19;;;16.45;49.80
54236;BME280;40151;43.606;1.472;2023-02-03T11:07:05;101181.19;;;16.46;49.93
54236;BME280;40151;43.606;1.472;2023-02-03T11:09:40;101175.00;;;16.47;49.88
54236;BME280;40151;43.606;1.472;2023-02-03T11:12:15;101176.78;;;16.47;49.92
54236;BME280;40151;43.606;1.472;2023-02-03T11:14:44;101179.38;;;16.48;49.66
54236;BME280;40151;43.606;1.472;2023-02-03T11:19:46;101187.28;;;16.48;49.81
54236;BME280;40151;43.606;1.472;2023-02-03T11:22:26;101179.44;;;16.47;49.66
54236;BME280;40151;43.606;1.472;2023-02-03T11:24:52;101179.44;;;16.47;49.64
54236;BME280;40151;43.606;1.472;2023-02-03T11:27:19;101187.28;;;16.48;49.66
54236;BME280;40151;43.606;1.472;2023-02-03T11:29:49;101181.19;;;16.46;49.88
54236;BME280;40151;43.606;1.472;2023-02-03T11:32:27;101176.78;;;16.47;49.50
54236;BME280;40151;43.606;1.472;2023-02-03T11:35:12;101174.16;;;16.47;49.65
54236;BME280;40151;43.606;1.472;2023-02-03T11:37:41;101179.38;;;16.50;49.56
54236;BME280;40151;43.606;1.472;2023-02-03T11:42:43;101165.38;;;16.46;49.82
54236;BME280;40151;43.606;1.472;2023-02-03T11:47:50;101165.38;;;16.46;49.88
54236;BME280;40151;43.606;1.472;2023-02-03T12:12:59;101138.09;;;16.49;49.69
54236;BME280;40151;43.606;1.472;2023-02-03T12:18:29;101134.59;;;16.48;49.60
54236;BME280;40151;43.606;1.472;2023-02-03T12:23:50;101131.09;;;16.48;49.63
54236;BME280;40151;43.606;1.472;2023-02-03T12:26:46;101124.94;;;16.49;49.57
54236;BME280;40151;43.606;1.472;2023-02-03T12:29:13;101119.66;;;16.49;49.76
54236;BME280;40151;43.606;1.472;2023-02-03T12:34:27;101105.59;;;16.50;49.55
54236;BME280;40151;43.606;1.472;2023-02-03T12:37:00;101113.50;;;16.48;49.63
54236;BME280;40151;43.606;1.472;2023-02-03T12:42:16;101087.19;;;16.47;49.57
54236;BME280;40151;43.606;1.472;2023-02-03T12:52:36;101080.97;;;16.51;49.67
54236;BME280;40151;43.606;1.472;2023-02-03T12:55:43;101068.69;;;16.50;49.78
54236;BME280;40151;43.606;1.472;2023-02-03T12:58:20;101071.31;;;16.50;49.42
54236;BME280;40151;43.606;1.472;2023-02-03T13:03:41;101065.16;;;16.51;49.61
54236;BME280;40151;43.606;1.472;2023-02-03T13:06:19;101058.16;;;16.50;49.49
54236;BME280;40151;43.606;1.472;2023-02-03T13:08:57;101054.63;;;16.51;49.68
54236;BME280;40151;43.606;1.472;2023-02-03T13:11:39;101051.13;;;16.52;49.59
54236;BME280;40151;43.606;1.472;2023-02-03T13:14:43;101051.97;;;16.51;49.78
54236;BME280;40151;43.606;1.472;2023-02-03T13:17:18;101049.34;;;16.51;49.62
54236;BME280;40151;43.606;1.472;2023-02-03T13:19:48;101047.63;;;16.50;49.52
54236;BME280;40151;43.606;1.472;2023-02-03T13:22:15;101051.13;;;16.52;49.62
54236;BME280;40151;43.606;1.472;2023-02-03T13:24:48;101044.06;;;16.51;49.49
54236;BME280;40151;43.606;1.472;2023-02-03T13:30:41;101041.41;;;16.54;49.45
54236;BME280;40151;43.606;1.472;2023-02-03T13:36:07;101024.81;;;16.49;49.46
54236;BME280;40151;43.606;1.472;2023-02-03T13:41:47;101023.00;;;16.51;49.69
54236;BME280;40151;43.606;1.472;2023-02-03T13:44:17;101025.69;;;16.49;49.50
54236;BME280;40151;43.606;1.472;2023-02-03T13:46:47;101021.25;;;16.50;49.61
54236;BME280;40151;43.606;1.472;2023-02-03T13:49:39;101023.88;;;16.51;49.92
54236;BME280;40151;43.606;1.472;2023-02-03T13:54:55;101018.59;;;16.53;49.27
54236;BME280;40151;43.606;1.472;2023-02-03T13:57:27;101014.22;;;16.52;49.77
54236;BME280;40151;43.606;1.472;2023-02-03T13:59:55;101009.88;;;16.49;49.75
54236;BME280;40151;43.606;1.472;2023-02-03T14:10:22;101021.22;;;16.53;49.63
54236;BME280;40151;43.606;1.472;2023-02-03T14:15:27;101016.81;;;16.54;49.39
54236;BME280;40151;43.606;1.472;2023-02-03T14:18:02;101005.41;;;16.53;49.42
54236;BME280;40151;43.606;1.472;2023-02-03T14:23:04;101000.16;;;16.53;49.58
54236;BME280;40151;43.606;1.472;2023-02-03T14:25:50;101004.53;;;16.53;49.38
54236;BME280;40151;43.606;1.472;2023-02-03T14:28:21;100996.66;;;16.51;49.16
54236;BME280;40151;43.606;1.472;2023-02-03T14:31:03;101006.34;;;16.50;49.42
54236;BME280;40151;43.606;1.472;2023-02-03T14:36:35;100992.25;;;16.51;49.36
54236;BME280;40151;43.606;1.472;2023-02-03T14:56:25;101000.19;;;16.50;49.59
54236;BME280;40151;43.606;1.472;2023-02-03T14:58:54;100999.28;;;16.51;49.64
54236;BME280;40151;43.606;1.472;2023-02-03T15:04:24;101003.69;;;16.52;49.57
54236;BME280;40151;43.606;1.472;2023-02-03T15:06:51;101000.16;;;16.53;49.49
54236;BME280;40151;43.606;1.472;2023-02-03T15:12:01;101001.91;;;16.51;49.74
54236;BME280;40151;43.606;1.472;2023-02-03T15:14:28;101008.06;;;16.51;49.67
54236;BME280;40151;43.606;1.472;2023-02-03T15:17:11;101000.19;;;16.50;49.79
54236;BME280;40151;43.606;1.472;2023-02-03T15:19:39;101001.88;;;16.54;49.48
54236;BME280;40151;43.606;1.472;2023-02-03T15:22:26;101001.88;;;16.54;49.55
54236;BME280;40151;43.606;1.472;2023-02-03T15:24:58;101003.69;;;16.52;49.41
54236;BME280;40151;43.606;1.472;2023-02-03T15:27:26;101002.75;;;16.55;49.27
54236;BME280;40151;43.606;1.472;2023-02-03T15:29:53;101015.94;;;16.53;49.28
54236;BME280;40151;43.606;1.472;2023-02-03T15:34:48;101011.50;;;16.55;49.34
54236;BME280;40151;43.606;1.472;2023-02-03T15:38:00;101007.16;;;16.54;49.40